Time;durP1;ratioP1;P1;durP2;ratioP2;P2;SDS_P1;SDS_P2;PMS_P1;PMS_P2;Temp;Humidity;BMP_temperature;BMP_pressure;BME280_temperature;BME280_humidity;BME280_pressure;Samples;Min_cycle;Max_cycle;Signal;HPM_P1;HPM_P2
2022/07/09 00:00:00;;;;;;;3.47;1.88;;;;;;;;;;5010468;28;20026;-81
2022/07/09 00:02:26;;;;;;;3.28;1.80;;;;;;;;;;4988109;28;20124;-81
2022/07/09 00:04:51;;;;;;;2.78;1.90;;;;;;;;;;5017315;28;20018;-81
2022/07/09 00:07:19;;;;;;;3.30;1.73;;;;;;;;;;5022003;28;20117;-81
2022/07/09 00:09:45;;;;;;;7.43;1.88;;;;;;;;;;5029011;28;20084;-81
2022/07/09 00:12:10;;;;;;;4.63;1.75;;;;;;;;;;5016615;28;20029;-81
2022/07/09 00:14:35;;;;;;;4.50;1.85;;;;;;;;;;5021773;28;20017;-81
2022/07/09 00:17:01;;;;;;;3.88;1.90;;;;;;;;;;5021582;28;20379;-81
2022/07/09 00:19:26;;;;;;;2.25;1.50;;;;;;;;;;5012983;28;20029;-81
2022/07/09 00:21:52;;;;;;;2.20;1.80;;;;;;;;;;5025856;28;20032;-81
2022/07/09 00:24:17;;;;;;;2.55;1.60;;;;;;;;;;4998763;28;20029;-81
2022/07/09 00:26:43;;;;;;;5.82;1.83;;;;;;;;;;5018818;28;20048;-81
2022/07/09 00:29:08;;;;;;;3.33;1.45;;;;;;;;;;5014082;28;20025;-81
2022/07/09 00:31:33;;;;;;;3.22;1.90;;;;;;;;;;5014751;28;20561;-80
2022/07/09 00:33:59;;;;;;;7.78;1.98;;;;;;;;;;5028939;28;20049;-81
2022/07/09 00:36:24;;;;;;;4.28;2.22;;;;;;;;;;5018259;28;20025;-81
2022/07/09 00:38:49;;;;;;;4.50;1.70;;;;;;;;;;5001617;28;20368;-81
2022/07/09 00:41:15;;;;;;;6.15;1.77;;;;;;;;;;5016359;28;20057;-81
2022/07/09 00:43:47;;;;;;;3.45;1.58;;;;;;;;;;4996504;28;20030;-83
2022/07/09 00:46:12;;;;;;;2.53;1.95;;;;;;;;;;5017416;28;20017;-81
2022/07/09 00:48:37;;;;;;;4.63;1.80;;;;;;;;;;5015972;28;20029;-81
2022/07/09 00:51:03;;;;;;;3.90;1.80;;;;;;;;;;4999738;28;20053;-82
2022/07/09 00:53:28;;;;;;;4.32;1.75;;;;;;;;;;5017946;28;20546;-80
2022/07/09 00:55:54;;;;;;;5.25;2.53;;;;;;;;;;5017050;28;20046;-80
2022/07/09 00:58:21;;;;;;;5.53;2.22;;;;;;;;;;5013037;28;20435;-81
2022/07/09 01:00:47;;;;;;;3.65;1.65;;;;;;;;;;5015265;28;20077;-79
2022/07/09 01:03:12;;;;;;;1.75;1.63;;;;;;;;;;4999137;28;20045;-81
2022/07/09 01:05:38;;;;;;;4.50;2.05;;;;;;;;;;5023162;28;20029;-81
2022/07/09 01:08:04;;;;;;;2.65;1.85;;;;;;;;;;4998786;28;20048;-81
2022/07/09 01:10:31;;;;;;;2.10;1.80;;;;;;;;;;5015646;28;20026;-81
2022/07/09 01:13:04;;;;;;;5.30;2.10;;;;;;;;;;5038494;23;20045;-81
2022/07/09 01:15:29;;;;;;;4.22;2.10;;;;;;;;;;5036251;28;20487;-81
2022/07/09 01:17:57;;;;;;;3.15;2.03;;;;;;;;;;5027126;28;20042;-80
2022/07/09 01:20:23;;;;;;;6.65;1.88;;;;;;;;;;5020154;28;20021;-80
2022/07/09 01:22:49;;;;;;;3.88;2.00;;;;;;;;;;5039999;28;20036;-81
2022/07/09 01:25:17;;;;;;;2.75;1.88;;;;;;;;;;5035933;28;20033;-81
2022/07/09 01:27:42;;;;;;;3.08;1.77;;;;;;;;;;5051060;28;20036;-82
2022/07/09 01:30:08;;;;;;;5.38;1.98;;;;;;;;;;5036539;28;20029;-80
2022/07/09 01:32:33;;;;;;;3.80;2.10;;;;;;;;;;5026053;28;20076;-81
2022/07/09 01:34:58;;;;;;;4.95;2.60;;;;;;;;;;5036333;28;20017;-82
2022/07/09 01:37:24;;;;;;;1.73;1.60;;;;;;;;;;5030190;28;20047;-81
2022/07/09 01:39:52;;;;;;;4.05;2.25;;;;;;;;;;5036711;28;20101;-81
2022/07/09 01:42:18;;;;;;;3.05;1.85;;;;;;;;;;5045431;28;21136;-80
2022/07/09 01:44:45;;;;;;;3.03;1.83;;;;;;;;;;5022443;28;20021;-81
2022/07/09 01:47:11;;;;;;;7.00;1.85;;;;;;;;;;5036933;28;20030;-80
2022/07/09 01:49:36;;;;;;;4.22;1.80;;;;;;;;;;5038762;28;20043;-81
2022/07/09 01:52:03;;;;;;;2.95;1.73;;;;;;;;;;5046703;28;20471;-81
2022/07/09 01:54:28;;;;;;;7.82;1.92;;;;;;;;;;5010980;28;20121;-81
2022/07/09 01:56:54;;;;;;;3.70;2.25;;;;;;;;;;5017759;28;20054;-81
2022/07/09 01:59:19;;;;;;;4.22;2.00;;;;;;;;;;5034432;28;20029;-81
2022/07/09 02:01:45;;;;;;;6.45;2.15;;;;;;;;;;5037648;28;20033;-81
2022/07/09 02:04:10;;;;;;;7.82;2.22;;;;;;;;;;5037046;28;20459;-81
2022/07/09 02:06:35;;;;;;;4.40;2.05;;;;;;;;;;5036921;28;20506;-80
2022/07/09 02:09:01;;;;;;;3.45;1.90;;;;;;;;;;5036871;28;20468;-81
2022/07/09 02:11:26;;;;;;;2.92;1.80;;;;;;;;;;5035451;28;20041;-80
2022/07/09 02:13:51;;;;;;;4.30;2.00;;;;;;;;;;5014979;28;20062;-81
2022/07/09 02:16:17;;;;;;;2.65;2.00;;;;;;;;;;5035613;28;20475;-81
2022/07/09 02:18:42;;;;;;;6.88;2.47;;;;;;;;;;5033223;28;20518;-81
2022/07/09 02:21:07;;;;;;;5.82;2.20;;;;;;;;;;5035243;28;20384;-81
2022/07/09 02:23:33;;;;;;;2.72;1.90;;;;;;;;;;5035667;28;20478;-81
2022/07/09 02:25:58;;;;;;;6.07;2.05;;;;;;;;;;5017964;28;20029;-82
2022/07/09 02:28:23;;;;;;;4.75;2.10;;;;;;;;;;5017377;28;20475;-81
2022/07/09 02:30:49;;;;;;;3.95;2.30;;;;;;;;;;5035681;28;20103;-81
2022/07/09 02:33:14;;;;;;;4.68;2.22;;;;;;;;;;5034456;28;20069;-81
2022/07/09 02:35:40;;;;;;;3.75;2.25;;;;;;;;;;5035467;28;20017;-81
2022/07/09 02:38:05;;;;;;;4.72;2.22;;;;;;;;;;5015464;28;20471;-81
2022/07/09 02:40:30;;;;;;;3.40;1.90;;;;;;;;;;5033137;28;20029;-79
2022/07/09 02:42:56;;;;;;;6.60;2.13;;;;;;;;;;5035218;28;20026;-81
2022/07/09 02:45:21;;;;;;;10.10;2.35;;;;;;;;;;5037642;28;20544;-82
2022/07/09 02:47:46;;;;;;;2.05;1.95;;;;;;;;;;5038142;28;20643;-81
2022/07/09 02:50:12;;;;;;;4.65;2.40;;;;;;;;;;5038669;28;20028;-80
2022/07/09 02:52:37;;;;;;;3.78;1.95;;;;;;;;;;5023542;28;20115;-81
2022/07/09 02:55:03;;;;;;;5.97;2.20;;;;;;;;;;5038730;28;20112;-81
2022/07/09 02:57:28;;;;;;;4.97;2.53;;;;;;;;;;5039097;28;20038;-81
2022/07/09 02:59:53;;;;;;;2.25;2.05;;;;;;;;;;5021323;28;20048;-81
2022/07/09 03:02:19;;;;;;;5.90;2.15;;;;;;;;;;5030165;28;20029;-81
2022/07/09 03:04:44;;;;;;;4.32;2.40;;;;;;;;;;5045637;28;20037;-81
2022/07/09 03:07:09;;;;;;;3.92;2.38;;;;;;;;;;5038413;28;20032;-81
2022/07/09 03:09:35;;;;;;;3.72;2.30;;;;;;;;;;5023223;28;20029;-80
2022/07/09 03:12:00;;;;;;;9.65;2.70;;;;;;;;;;5020658;28;20041;-81
2022/07/09 03:14:25;;;;;;;4.43;2.70;;;;;;;;;;5045882;28;20031;-81
2022/07/09 03:16:51;;;;;;;2.75;2.03;;;;;;;;;;5044965;28;20029;-81
2022/07/09 03:19:16;;;;;;;3.85;2.20;;;;;;;;;;5020840;28;20088;-81
2022/07/09 03:21:41;;;;;;;4.93;2.30;;;;;;;;;;5039738;28;20053;-81
2022/07/09 03:24:08;;;;;;;3.03;2.20;;;;;;;;;;5043886;28;20518;-81
2022/07/09 03:26:34;;;;;;;6.55;2.40;;;;;;;;;;5026396;28;20381;-80
2022/07/09 03:28:59;;;;;;;3.58;2.03;;;;;;;;;;5025129;28;20017;-81
2022/07/09 03:31:24;;;;;;;3.38;2.17;;;;;;;;;;5057950;28;20047;-81
2022/07/09 03:33:53;;;;;;;4.03;2.60;;;;;;;;;;5032672;28;20099;-81
2022/07/09 03:36:18;;;;;;;3.70;2.58;;;;;;;;;;5024307;28;20093;-81
2022/07/09 03:38:44;;;;;;;4.32;2.38;;;;;;;;;;5039008;28;20056;-81
2022/07/09 03:41:09;;;;;;;10.10;2.55;;;;;;;;;;5038221;28;20026;-80
2022/07/09 03:43:34;;;;;;;3.50;2.22;;;;;;;;;;5038334;28;20035;-81
2022/07/09 03:46:00;;;;;;;5.72;2.38;;;;;;;;;;5037609;28;20468;-80
2022/07/09 03:48:25;;;;;;;3.42;2.20;;;;;;;;;;5021315;28;20029;-81
2022/07/09 03:50:51;;;;;;;3.80;2.50;;;;;;;;;;5038277;28;20172;-81
2022/07/09 03:53:16;;;;;;;2.15;1.92;;;;;;;;;;5038664;28;20028;-81
2022/07/09 03:55:42;;;;;;;3.20;2.10;;;;;;;;;;5053096;28;20443;-81
2022/07/09 03:58:07;;;;;;;8.40;2.20;;;;;;;;;;5038052;28;20460;-81
2022/07/09 04:00:33;;;;;;;3.53;2.25;;;;;;;;;;5039770;28;20018;-81
2022/07/09 04:02:58;;;;;;;4.32;2.78;;;;;;;;;;5028243;28;20095;-81
2022/07/09 04:05:24;;;;;;;4.63;2.55;;;;;;;;;;5023532;28;20455;-82
2022/07/09 04:07:49;;;;;;;3.40;2.17;;;;;;;;;;5030785;28;20101;-81
2022/07/09 04:10:14;;;;;;;2.83;2.17;;;;;;;;;;5046932;28;20040;-81
2022/07/09 04:12:40;;;;;;;10.65;2.42;;;;;;;;;;5037374;28;20057;-81
2022/07/09 04:15:05;;;;;;;5.82;3.03;;;;;;;;;;5032910;28;20487;-81
2022/07/09 04:17:31;;;;;;;9.95;3.20;;;;;;;;;;5046384;28;20036;-81
2022/07/09 04:19:56;;;;;;;6.22;2.60;;;;;;;;;;5037815;28;20112;-81
2022/07/09 04:22:22;;;;;;;4.78;2.30;;;;;;;;;;5037396;28;20382;-80
2022/07/09 04:24:47;;;;;;;2.75;2.42;;;;;;;;;;5048480;28;20027;-81
2022/07/09 04:27:12;;;;;;;5.90;2.25;;;;;;;;;;5057147;28;20063;-80
2022/07/09 04:29:38;;;;;;;5.38;2.33;;;;;;;;;;5040721;28;20428;-81
2022/07/09 04:32:04;;;;;;;4.82;2.53;;;;;;;;;;5022936;28;20471;-81
2022/07/09 04:34:29;;;;;;;5.97;2.60;;;;;;;;;;5026312;28;20048;-81
2022/07/09 04:36:54;;;;;;;7.45;2.40;;;;;;;;;;5037132;28;20082;-81
2022/07/09 04:39:20;;;;;;;5.15;2.75;;;;;;;;;;5043118;28;20112;-81
2022/07/09 04:41:45;;;;;;;4.30;2.60;;;;;;;;;;5070933;23;20064;-80
2022/07/09 04:44:15;;;;;;;5.10;2.90;;;;;;;;;;5001954;28;20538;-80
2022/07/09 04:46:41;;;;;;;5.50;2.70;;;;;;;;;;5007557;28;20102;-80
2022/07/09 04:49:06;;;;;;;3.38;2.30;;;;;;;;;;5015261;28;20049;-82
2022/07/09 04:51:32;;;;;;;5.35;2.80;;;;;;;;;;5003603;28;20395;-82
2022/07/09 04:53:57;;;;;;;8.55;2.83;;;;;;;;;;5003491;28;20037;-82
2022/07/09 04:56:23;;;;;;;5.43;2.90;;;;;;;;;;4999839;28;20041;-79
2022/07/09 04:58:54;;;;;;;3.60;2.50;;;;;;;;;;4990252;28;20023;-82
2022/07/09 05:01:22;;;;;;;3.30;2.47;;;;;;;;;;5001018;28;20057;-81
2022/07/09 05:03:49;;;;;;;7.30;2.33;;;;;;;;;;4995558;28;20034;-81
2022/07/09 05:06:15;;;;;;;5.50;2.92;;;;;;;;;;4977100;28;20090;-80
2022/07/09 05:08:41;;;;;;;6.00;2.70;;;;;;;;;;4989213;28;20030;-81
2022/07/09 05:11:06;;;;;;;8.38;2.80;;;;;;;;;;4999075;28;20049;-80
2022/07/09 05:13:32;;;;;;;6.40;2.35;;;;;;;;;;5012380;28;20029;-82
2022/07/09 05:15:57;;;;;;;4.63;2.35;;;;;;;;;;4976803;28;20018;-82
2022/07/09 05:18:23;;;;;;;6.63;2.88;;;;;;;;;;4989525;28;20048;-80
2022/07/09 05:20:48;;;;;;;6.45;2.90;;;;;;;;;;5000361;28;20030;-81
2022/07/09 05:23:14;;;;;;;7.20;3.35;;;;;;;;;;4995999;28;20028;-82
2022/07/09 05:25:39;;;;;;;5.82;3.00;;;;;;;;;;4991791;28;20034;-82
2022/07/09 05:28:04;;;;;;;4.78;2.90;;;;;;;;;;4983675;28;20046;-81
2022/07/09 05:30:30;;;;;;;3.30;2.58;;;;;;;;;;4979423;28;20033;-82
2022/07/09 05:32:55;;;;;;;5.78;3.00;;;;;;;;;;5006061;28;20026;-81
2022/07/09 05:35:23;;;;;;;5.30;3.00;;;;;;;;;;4986939;28;20150;-81
2022/07/09 05:37:49;;;;;;;5.60;3.17;;;;;;;;;;4979888;28;20176;-81
2022/07/09 05:40:14;;;;;;;5.68;2.88;;;;;;;;;;4995920;28;20061;-83
2022/07/09 05:42:39;;;;;;;7.95;3.17;;;;;;;;;;5005991;28;20026;-82
2022/07/09 05:45:06;;;;;;;4.80;2.53;;;;;;;;;;5001861;28;20069;-81
2022/07/09 05:47:31;;;;;;;6.85;3.00;;;;;;;;;;4987319;28;20099;-81
2022/07/09 05:49:56;;;;;;;3.80;2.80;;;;;;;;;;5002050;28;20092;-82
2022/07/09 05:52:22;;;;;;;7.78;3.17;;;;;;;;;;4982658;28;20029;-82
2022/07/09 05:54:47;;;;;;;9.65;3.15;;;;;;;;;;4995161;28;20018;-82
2022/07/09 05:57:12;;;;;;;7.97;2.72;;;;;;;;;;4992314;28;20030;-81
2022/07/09 05:59:37;;;;;;;4.25;2.60;;;;;;;;;;5001777;28;20216;-81
2022/07/09 06:02:05;;;;;;;5.10;2.55;;;;;;;;;;4996446;28;20027;-80
2022/07/09 06:04:31;;;;;;;5.20;2.67;;;;;;;;;;4997036;28;20505;-81
2022/07/09 06:06:56;;;;;;;4.53;2.95;;;;;;;;;;5000523;28;20030;-82
2022/07/09 06:09:21;;;;;;;5.40;2.63;;;;;;;;;;4995878;28;20045;-82
2022/07/09 06:11:47;;;;;;;5.85;2.58;;;;;;;;;;5006252;28;20025;-81
2022/07/09 06:14:12;;;;;;;3.53;2.45;;;;;;;;;;4994903;28;20106;-82
2022/07/09 06:16:37;;;;;;;3.97;2.42;;;;;;;;;;4989082;28;20037;-82
2022/07/09 06:19:03;;;;;;;5.30;2.85;;;;;;;;;;5007200;28;20401;-81
2022/07/09 06:21:28;;;;;;;6.75;3.33;;;;;;;;;;4980916;28;20018;-81
2022/07/09 06:23:54;;;;;;;4.80;2.45;;;;;;;;;;5007805;28;20077;-81
2022/07/09 06:26:19;;;;;;;3.95;2.58;;;;;;;;;;4999199;28;20100;-81
2022/07/09 06:28:46;;;;;;;4.03;2.45;;;;;;;;;;4998846;28;20027;-81
2022/07/09 06:31:11;;;;;;;7.72;2.20;;;;;;;;;;5005764;28;20026;-81
2022/07/09 06:33:37;;;;;;;6.90;2.55;;;;;;;;;;4989525;28;20440;-81
2022/07/09 06:36:02;;;;;;;3.53;2.28;;;;;;;;;;4987628;28;20022;-81
2022/07/09 06:38:29;;;;;;;3.42;2.00;;;;;;;;;;4982081;28;20472;-81
2022/07/09 06:40:55;;;;;;;6.47;2.10;;;;;;;;;;5012184;28;20027;-81
2022/07/09 06:43:21;;;;;;;6.57;2.10;;;;;;;;;;5003023;28;20050;-81
2022/07/09 06:45:46;;;;;;;6.10;2.30;;;;;;;;;;4987700;28;20089;-82
2022/07/09 06:48:11;;;;;;;4.93;1.90;;;;;;;;;;4975374;28;20444;-80
2022/07/09 06:50:37;;;;;;;5.53;2.50;;;;;;;;;;4994959;28;20397;-81
2022/07/09 06:53:02;;;;;;;3.22;1.98;;;;;;;;;;5004364;28;20380;-80
2022/07/09 06:55:28;;;;;;;4.85;2.67;;;;;;;;;;5001906;28;20026;-81
2022/07/09 06:57:53;;;;;;;4.28;2.10;;;;;;;;;;4993784;28;20026;-81
2022/07/09 07:00:18;;;;;;;5.13;1.95;;;;;;;;;;4994495;28;20038;-83
2022/07/09 07:02:44;;;;;;;3.28;1.98;;;;;;;;;;5003395;28;20030;-81
2022/07/09 07:05:09;;;;;;;7.68;2.10;;;;;;;;;;4998909;28;20026;-82
2022/07/09 07:07:34;;;;;;;4.55;2.00;;;;;;;;;;4997167;28;20136;-81
2022/07/09 07:10:00;;;;;;;4.63;1.80;;;;;;;;;;4990439;28;20028;-82
2022/07/09 07:12:25;;;;;;;3.85;1.67;;;;;;;;;;5009663;28;20094;-81
2022/07/09 07:14:50;;;;;;;5.20;1.98;;;;;;;;;;4991854;28;20439;-82
2022/07/09 07:17:16;;;;;;;5.53;1.80;;;;;;;;;;4999687;28;20080;-82
2022/07/09 07:19:43;;;;;;;3.72;1.90;;;;;;;;;;4991303;28;20061;-81
2022/07/09 07:22:08;;;;;;;3.75;1.67;;;;;;;;;;5004039;28;20038;-82
2022/07/09 07:24:33;;;;;;;5.55;1.88;;;;;;;;;;4990715;28;20464;-81
2022/07/09 07:26:59;;;;;;;2.78;1.70;;;;;;;;;;4993912;28;20054;-82
2022/07/09 07:29:24;;;;;;;3.78;1.60;;;;;;;;;;4979191;28;20225;-81
2022/07/09 07:31:50;;;;;;;5.57;2.00;;;;;;;;;;4987039;28;20093;-81
2022/07/09 07:34:17;;;;;;;7.95;2.00;;;;;;;;;;4992658;28;20026;-81
2022/07/09 07:36:43;;;;;;;2.35;1.60;;;;;;;;;;4990599;28;20030;-84
2022/07/09 07:39:15;;;;;;;5.45;1.83;;;;;;;;;;4993276;28;20022;-82
2022/07/09 07:41:40;;;;;;;2.53;1.67;;;;;;;;;;4994031;28;20049;-80
2022/07/09 07:44:06;;;;;;;8.13;2.45;;;;;;;;;;5002845;28;20026;-81
2022/07/09 07:46:31;;;;;;;8.70;2.00;;;;;;;;;;5000770;28;20029;-80
2022/07/09 07:48:56;;;;;;;3.53;1.40;;;;;;;;;;5005105;28;20034;-81
2022/07/09 07:51:22;;;;;;;4.57;2.33;;;;;;;;;;4998319;28;20037;-80
2022/07/09 07:53:47;;;;;;;4.00;1.95;;;;;;;;;;5000030;28;20022;-81
2022/07/09 07:56:12;;;;;;;3.42;1.40;;;;;;;;;;5003173;28;20033;-83
2022/07/09 07:58:38;;;;;;;3.15;2.00;;;;;;;;;;5007474;28;20432;-81
2022/07/09 08:01:03;;;;;;;4.32;1.48;;;;;;;;;;5013438;28;20033;-81
2022/07/09 08:03:29;;;;;;;5.53;1.95;;;;;;;;;;5002971;28;20045;-81
2022/07/09 08:05:54;;;;;;;4.88;2.03;;;;;;;;;;5006708;28;20026;-81
2022/07/09 08:08:20;;;;;;;5.43;1.67;;;;;;;;;;4997468;28;20052;-80
2022/07/09 08:10:48;;;;;;;3.75;1.42;;;;;;;;;;4994983;28;20029;-81
2022/07/09 08:13:15;;;;;;;2.97;1.80;;;;;;;;;;5003286;28;20045;-82
2022/07/09 08:15:41;;;;;;;4.05;1.30;;;;;;;;;;4998457;28;20029;-82
2022/07/09 08:18:08;;;;;;;4.30;1.33;;;;;;;;;;5001434;28;20105;-82
2022/07/09 08:20:36;;;;;;;6.55;1.75;;;;;;;;;;5003627;28;20040;-82
2022/07/09 08:23:02;;;;;;;2.95;1.52;;;;;;;;;;4999062;28;20033;-82
2022/07/09 08:25:27;;;;;;;2.25;1.15;;;;;;;;;;4987557;28;20026;-82
2022/07/09 08:27:52;;;;;;;2.03;1.10;;;;;;;;;;4997178;28;20026;-81
2022/07/09 08:30:18;;;;;;;4.00;1.20;;;;;;;;;;4981244;28;20027;-83
2022/07/09 08:32:43;;;;;;;3.28;1.33;;;;;;;;;;4978663;28;20049;-82
2022/07/09 08:35:09;;;;;;;2.15;1.20;;;;;;;;;;4997571;28;20101;-83
2022/07/09 08:37:34;;;;;;;5.57;1.70;;;;;;;;;;4981290;28;20384;-83
2022/07/09 08:40:00;;;;;;;2.22;1.27;;;;;;;;;;5003414;28;20025;-83
2022/07/09 08:42:26;;;;;;;4.18;1.52;;;;;;;;;;4998611;28;20022;-82
2022/07/09 08:44:53;;;;;;;3.90;1.38;;;;;;;;;;4999890;28;20064;-82
2022/07/09 08:47:19;;;;;;;2.22;1.55;;;;;;;;;;5001276;28;20054;-81
2022/07/09 08:49:46;;;;;;;5.47;1.50;;;;;;;;;;4990185;28;20031;-81
2022/07/09 08:52:12;;;;;;;3.08;1.33;;;;;;;;;;5007802;28;20353;-81
2022/07/09 08:54:40;;;;;;;1.77;1.15;;;;;;;;;;5005324;28;20484;-82
2022/07/09 08:57:06;;;;;;;2.65;1.42;;;;;;;;;;4999999;28;20076;-81
2022/07/09 08:59:32;;;;;;;3.50;1.45;;;;;;;;;;5003307;28;20022;-81
2022/07/09 09:01:57;;;;;;;2.75;1.13;;;;;;;;;;4992929;28;20018;-81
2022/07/09 09:04:24;;;;;;;1.08;1.00;;;;;;;;;;5001535;28;20042;-81
2022/07/09 09:06:50;;;;;;;6.13;1.52;;;;;;;;;;4999037;28;20058;-82
2022/07/09 09:09:19;;;;;;;4.15;1.30;;;;;;;;;;5001804;28;20018;-80
2022/07/09 09:11:49;;;;;;;2.20;1.33;;;;;;;;;;4998224;28;20022;-82
2022/07/09 09:14:22;;;;;;;2.55;1.15;;;;;;;;;;4997496;28;20406;-81
2022/07/09 09:16:48;;;;;;;5.05;1.65;;;;;;;;;;4995108;28;20026;-83
2022/07/09 09:19:14;;;;;;;5.85;1.55;;;;;;;;;;4998943;28;20033;-82
2022/07/09 09:21:39;;;;;;;1.58;1.25;;;;;;;;;;4984713;28;20360;-80
2022/07/09 09:24:05;;;;;;;2.50;0.93;;;;;;;;;;4999579;28;20030;-82
2022/07/09 09:26:33;;;;;;;2.50;1.20;;;;;;;;;;4992531;28;20030;-82
2022/07/09 09:29:01;;;;;;;3.75;1.30;;;;;;;;;;4985917;28;20030;-83
2022/07/09 09:31:30;;;;;;;3.53;1.23;;;;;;;;;;4999346;28;20022;-81
2022/07/09 09:34:09;;;;;;;2.80;1.25;;;;;;;;;;4994629;28;20038;-83
2022/07/09 09:36:38;;;;;;;2.28;0.93;;;;;;;;;;4988245;28;20492;-82
2022/07/09 09:39:18;;;;;;;3.13;1.38;;;;;;;;;;4995488;28;20673;-84
2022/07/09 09:41:45;;;;;;;1.08;0.90;;;;;;;;;;5002597;28;20022;-83
2022/07/09 09:44:13;;;;;;;1.75;1.00;;;;;;;;;;5005797;28;20026;-82
2022/07/09 09:46:41;;;;;;;5.65;1.00;;;;;;;;;;5004839;28;20112;-82
2022/07/09 09:49:08;;;;;;;1.17;1.00;;;;;;;;;;4999066;28;20027;-81
2022/07/09 09:51:36;;;;;;;1.23;1.02;;;;;;;;;;4998283;28;20113;-81
2022/07/09 09:54:03;;;;;;;1.30;0.70;;;;;;;;;;5002692;28;20050;-81
2022/07/09 09:56:30;;;;;;;4.32;0.90;;;;;;;;;;5007814;28;20030;-81
2022/07/09 09:58:56;;;;;;;2.53;1.00;;;;;;;;;;5009615;28;20497;-82
2022/07/09 10:01:21;;;;;;;1.02;1.00;;;;;;;;;;5005051;28;20122;-80
2022/07/09 10:03:49;;;;;;;1.88;1.20;;;;;;;;;;5003929;28;20084;-78
2022/07/09 10:06:15;;;;;;;2.08;1.00;;;;;;;;;;5004017;28;20114;-77
2022/07/09 10:08:40;;;;;;;1.60;1.10;;;;;;;;;;4999322;28;20086;-80
2022/07/09 10:11:05;;;;;;;2.63;0.82;;;;;;;;;;5002957;28;20022;-80
2022/07/09 10:13:31;;;;;;;1.25;1.10;;;;;;;;;;4998889;28;20056;-80
2022/07/09 10:15:56;;;;;;;4.18;0.98;;;;;;;;;;4998173;28;20078;-78
2022/07/09 10:18:22;;;;;;;2.35;1.00;;;;;;;;;;4993303;28;20019;-80
2022/07/09 10:20:47;;;;;;;3.55;0.82;;;;;;;;;;4997970;28;20025;-80
2022/07/09 10:23:22;;;;;;;4.40;0.88;;;;;;;;;;4997411;28;20034;-81
2022/07/09 10:25:52;;;;;;;0.77;0.73;;;;;;;;;;5010066;28;20483;-78
2022/07/09 10:28:19;;;;;;;5.13;1.50;;;;;;;;;;5009037;28;20046;-80
2022/07/09 10:30:45;;;;;;;2.83;1.23;;;;;;;;;;4986875;28;20030;-79
2022/07/09 10:33:12;;;;;;;3.20;1.25;;;;;;;;;;4994064;28;20036;-79
2022/07/09 10:35:43;;;;;;;1.70;1.10;;;;;;;;;;4987786;28;20061;-78
2022/07/09 10:38:10;;;;;;;3.20;0.95;;;;;;;;;;4997589;28;20032;-79
2022/07/09 10:40:58;;;;;;;2.60;1.17;;;;;;;;;;4998005;28;20034;-79
2022/07/09 10:43:57;;;;;;;6.78;1.30;;;;;;;;;;5112257;23;20050;-81
2022/07/09 10:46:23;;;;;;;3.88;1.00;;;;;;;;;;5021728;28;20041;-80
2022/07/09 10:48:48;;;;;;;2.90;1.30;;;;;;;;;;5007674;28;20025;-79
2022/07/09 10:51:23;;;;;;;2.92;1.02;;;;;;;;;;5004738;28;20033;-79
2022/07/09 10:53:48;;;;;;;3.85;1.38;;;;;;;;;;4989087;28;20026;-80
2022/07/09 10:56:21;;;;;;;1.88;1.00;;;;;;;;;;5014449;28;20033;-79
2022/07/09 10:58:56;;;;;;;4.82;1.00;;;;;;;;;;4992454;28;20021;-81
2022/07/09 11:04:35;;;;;;;1.45;0.80;;;;;;;;;;4936606;29;20067;-78
2022/07/09 11:07:36;;;;;;;1.67;0.88;;;;;;;;;;5005442;28;20034;-78
2022/07/09 11:10:02;;;;;;;2.35;0.95;;;;;;;;;;4996263;28;20038;-79
2022/07/09 11:13:20;;;;;;;0.70;0.70;;;;;;;;;;5011429;28;20387;-79
2022/07/09 11:16:27;;;;;;;0.75;0.75;;;;;;;;;;4996524;28;20046;-80
2022/07/09 11:19:28;;;;;;;3.28;0.70;;;;;;;;;;4929032;28;20036;-82
2022/07/09 11:22:07;;;;;;;1.20;0.97;;;;;;;;;;5021451;28;20029;-79
2022/07/09 11:24:35;;;;;;;2.70;0.90;;;;;;;;;;4994754;28;20056;-78
2022/07/09 11:27:08;;;;;;;3.10;1.20;;;;;;;;;;5017134;28;20087;-78
2022/07/09 11:29:38;;;;;;;2.00;1.00;;;;;;;;;;4991169;28;20392;-80
2022/07/09 11:32:06;;;;;;;1.95;1.13;;;;;;;;;;5003141;28;20049;-79
2022/07/09 11:34:31;;;;;;;3.13;1.10;;;;;;;;;;5011175;28;20095;-81
2022/07/09 11:36:58;;;;;;;2.67;1.10;;;;;;;;;;4992081;28;20034;-80
2022/07/09 11:39:29;;;;;;;2.15;1.10;;;;;;;;;;4994450;28;20204;-83
2022/07/09 11:41:55;;;;;;;2.45;1.10;;;;;;;;;;5006061;28;20033;-81
2022/07/09 11:44:34;;;;;;;1.48;1.08;;;;;;;;;;5019016;28;20026;-81
2022/07/09 11:47:06;;;;;;;1.70;1.00;;;;;;;;;;4998954;28;20045;-80
2022/07/09 11:49:46;;;;;;;3.53;1.15;;;;;;;;;;5017828;28;20056;-79
2022/07/09 11:52:19;;;;;;;1.75;1.02;;;;;;;;;;5030055;28;20085;-78
2022/07/09 11:55:05;;;;;;;0.95;0.77;;;;;;;;;;5012097;28;20026;-78
2022/07/09 11:57:32;;;;;;;1.10;0.93;;;;;;;;;;5025785;28;20095;-80
2022/07/09 11:59:59;;;;;;;1.65;0.90;;;;;;;;;;4998037;28;20045;-79
2022/07/09 12:02:38;;;;;;;1.48;0.73;;;;;;;;;;4987558;28;20034;-79
2022/07/09 12:05:07;;;;;;;2.60;0.98;;;;;;;;;;5004042;28;20021;-80
2022/07/09 12:07:34;;;;;;;1.90;0.90;;;;;;;;;;5011742;28;20029;-80
2022/07/09 12:10:09;;;;;;;2.35;1.05;;;;;;;;;;5012722;28;21344;-82
2022/07/09 12:12:36;;;;;;;2.35;1.00;;;;;;;;;;4991105;28;20030;-82
2022/07/09 12:15:04;;;;;;;4.30;0.80;;;;;;;;;;4999878;28;20041;-81
2022/07/09 12:17:31;;;;;;;1.40;0.70;;;;;;;;;;5020841;28;20026;-81
2022/07/09 12:20:29;;;;;;;4.57;0.90;;;;;;;;;;5021676;28;20027;-82
2022/07/09 12:22:54;;;;;;;3.80;0.90;;;;;;;;;;5009705;28;20461;-80
2022/07/09 12:25:36;;;;;;;1.83;1.02;;;;;;;;;;4997427;28;20084;-82
2022/07/09 12:28:19;;;;;;;2.80;0.88;;;;;;;;;;5011742;28;20029;-82
2022/07/09 12:30:51;;;;;;;0.95;0.80;;;;;;;;;;4977559;28;20505;-82
2022/07/09 12:33:17;;;;;;;1.67;0.82;;;;;;;;;;5003368;28;20029;-82
2022/07/09 12:35:42;;;;;;;1.00;0.90;;;;;;;;;;5020388;28;21574;-84
2022/07/09 12:38:07;;;;;;;4.45;0.90;;;;;;;;;;5018494;28;20287;-82
2022/07/09 12:44:14;;;;;;;0.80;0.80;;;;;;;;;;5013526;28;20136;-84
2022/07/09 12:47:26;;;;;;;1.25;0.63;;;;;;;;;;4970622;28;20046;-84
2022/07/09 12:50:11;;;;;;;1.15;0.77;;;;;;;;;;5012561;28;20026;-83
2022/07/09 12:52:37;;;;;;;1.48;0.80;;;;;;;;;;5003211;28;20036;-83
2022/07/09 12:55:04;;;;;;;3.30;1.20;;;;;;;;;;5013497;28;20018;-82
2022/07/09 12:57:29;;;;;;;1.00;1.00;;;;;;;;;;5029069;28;20077;-84
2022/07/09 12:59:55;;;;;;;1.05;0.60;;;;;;;;;;5003928;28;20033;-84
2022/07/09 13:02:21;;;;;;;2.33;0.70;;;;;;;;;;4999610;28;20758;-82
2022/07/09 13:04:46;;;;;;;0.95;0.70;;;;;;;;;;4999903;28;20034;-81
2022/07/09 13:07:12;;;;;;;1.05;0.70;;;;;;;;;;5014902;28;20040;-83
2022/07/09 13:09:37;;;;;;;1.05;0.80;;;;;;;;;;4998841;28;20085;-80
2022/07/09 13:12:03;;;;;;;0.65;0.65;;;;;;;;;;4997727;28;20033;-82
2022/07/09 13:14:29;;;;;;;0.50;0.50;;;;;;;;;;5009315;28;20053;-81
2022/07/09 13:16:54;;;;;;;4.95;1.30;;;;;;;;;;4984573;28;20026;-82
2022/07/09 13:19:21;;;;;;;0.98;0.85;;;;;;;;;;4988821;28;20030;-88
2022/07/09 13:21:46;;;;;;;1.52;0.70;;;;;;;;;;4999759;28;20033;-87
2022/07/09 13:24:11;;;;;;;1.60;0.73;;;;;;;;;;4999311;28;20022;-82
2022/07/09 13:26:37;;;;;;;1.27;0.70;;;;;;;;;;4995446;28;20034;-81
2022/07/09 13:29:02;;;;;;;0.90;0.60;;;;;;;;;;4991864;28;20113;-81
2022/07/09 13:31:28;;;;;;;1.27;0.77;;;;;;;;;;4995614;28;20422;-83
2022/07/09 13:33:53;;;;;;;2.92;1.15;;;;;;;;;;4989051;28;20473;-84
2022/07/09 13:36:19;;;;;;;2.33;0.75;;;;;;;;;;5010293;28;20060;-82
2022/07/09 13:38:44;;;;;;;2.47;0.90;;;;;;;;;;5005924;28;20376;-82
2022/07/09 13:41:09;;;;;;;2.25;0.77;;;;;;;;;;5014093;28;20029;-82
2022/07/09 13:43:35;;;;;;;2.70;1.13;;;;;;;;;;4989139;28;20050;-82
2022/07/09 13:46:00;;;;;;;2.25;0.93;;;;;;;;;;4994768;28;20017;-82
2022/07/09 13:48:26;;;;;;;5.22;1.90;;;;;;;;;;5011134;28;20025;-82
2022/07/09 13:50:53;;;;;;;3.35;0.73;;;;;;;;;;4991398;28;20033;-82
2022/07/09 13:53:19;;;;;;;1.65;0.93;;;;;;;;;;5013439;28;20059;-81
2022/07/09 13:55:45;;;;;;;1.35;0.80;;;;;;;;;;4993135;28;20030;-82
2022/07/09 13:58:11;;;;;;;1.08;0.90;;;;;;;;;;4993233;28;20445;-81
2022/07/09 14:00:37;;;;;;;1.23;0.93;;;;;;;;;;4988543;28;20037;-81
2022/07/09 14:03:02;;;;;;;1.83;0.95;;;;;;;;;;5007806;28;20037;-82
2022/07/09 14:05:28;;;;;;;2.75;1.13;;;;;;;;;;4995385;28;20047;-82
2022/07/09 14:07:53;;;;;;;4.20;1.13;;;;;;;;;;5009794;28;20030;-82
2022/07/09 14:10:19;;;;;;;0.77;0.77;;;;;;;;;;5004588;28;20026;-82
2022/07/09 14:12:44;;;;;;;1.92;1.10;;;;;;;;;;4996040;28;20018;-82
2022/07/09 14:15:10;;;;;;;2.70;1.50;;;;;;;;;;5013551;28;20026;-81
2022/07/09 14:17:36;;;;;;;7.20;1.50;;;;;;;;;;4986762;28;20065;-82
2022/07/09 14:20:02;;;;;;;1.35;1.05;;;;;;;;;;5009324;28;20065;-81
2022/07/09 14:22:28;;;;;;;3.00;1.20;;;;;;;;;;4998125;28;20428;-81
2022/07/09 14:24:53;;;;;;;3.33;1.00;;;;;;;;;;4999619;28;20520;-83
2022/07/09 14:27:19;;;;;;;2.75;1.05;;;;;;;;;;5009773;28;20522;-82
2022/07/09 14:29:45;;;;;;;7.78;1.13;;;;;;;;;;4987401;28;20018;-83
2022/07/09 14:32:11;;;;;;;1.77;0.95;;;;;;;;;;4996497;28;20384;-81
2022/07/09 14:34:36;;;;;;;3.42;1.17;;;;;;;;;;5007512;28;20085;-81
2022/07/09 14:37:02;;;;;;;1.25;1.10;;;;;;;;;;5005846;28;20124;-82
2022/07/09 14:39:28;;;;;;;1.33;1.10;;;;;;;;;;5000430;28;20112;-82
2022/07/09 14:41:53;;;;;;;0.90;0.80;;;;;;;;;;5019581;28;20336;-82
2022/07/09 14:44:19;;;;;;;1.33;1.02;;;;;;;;;;5018277;28;20058;-82
2022/07/09 14:46:44;;;;;;;1.55;1.17;;;;;;;;;;5005857;28;20029;-82
2022/07/09 14:49:12;;;;;;;1.15;1.00;;;;;;;;;;5016466;28;20480;-82